sensor_id;sensor_type;location;lat;lon;timestamp;pressure;altitude;pressure_sealevel;temperature;humidity
52441;BME280;39611;46.062;8.950;2023-04-04T00:02:14;96229.81;;;9.54;41.79
52441;BME280;39611;46.062;8.950;2023-04-04T00:04:41;96237.13;;;9.67;41.42
52441;BME280;39611;46.062;8.950;2023-04-04T00:07:08;96234.03;;;9.60;42.53
52441;BME280;39611;46.062;8.950;2023-04-04T00:09:34;96234.03;;;9.55;42.03
52441;BME280;39611;46.062;8.950;2023-04-04T00:12:01;96231.44;;;9.50;41.60
52441;BME280;39611;46.062;8.950;2023-04-04T00:14:27;96236.75;;;9.39;42.07
52441;BME280;39611;46.062;8.950;2023-04-04T00:16:54;96230.63;;;9.44;41.89
52441;BME280;39611;46.062;8.950;2023-04-04T00:19:20;96226.66;;;9.52;41.71
52441;BME280;39611;46.062;8.950;2023-04-04T00:21:47;96231.44;;;9.50;41.93
52441;BME280;39611;46.062;8.950;2023-04-04T00:24:15;96233.84;;;9.36;42.29
52441;BME280;39611;46.062;8.950;2023-04-04T00:26:42;96230.97;;;9.32;42.19
52441;BME280;39611;46.062;8.950;2023-04-04T00:29:08;96232.06;;;9.26;42.40
52441;BME280;39611;46.062;8.950;2023-04-04T00:31:34;96222.50;;;9.35;42.19
52441;BME280;39611;46.062;8.950;2023-04-04T00:34:01;96227.81;;;9.30;42.56
52441;BME280;39611;46.062;8.950;2023-04-04T00:36:28;96232.53;;;9.33;43.52
52441;BME280;39611;46.062;8.950;2023-04-04T00:38:54;96232.06;;;9.21;43.33
52441;BME280;39611;46.062;8.950;2023-04-04T00:41:20;96219.41;;;9.13;43.20
52441;BME280;39611;46.062;8.950;2023-04-04T00:43:47;96229.47;;;9.06;43.40
52441;BME280;39611;46.062;8.950;2023-04-04T00:46:14;96226.78;;;9.26;43.12
52441;BME280;39611;46.062;8.950;2023-04-04T00:48:43;96221.22;;;9.23;43.63
52441;BME280;39611;46.062;8.950;2023-04-04T00:51:09;96225.47;;;9.18;44.22
52441;BME280;39611;46.062;8.950;2023-04-04T00:53:36;96222.13;;;8.98;44.62
52441;BME280;39611;46.062;8.950;2023-04-04T00:56:03;96232.69;;;8.87;44.34
52441;BME280;39611;46.062;8.950;2023-04-04T00:58:30;96231.63;;;8.93;43.56
52441;BME280;39611;46.062;8.950;2023-04-04T01:00:58;96224.44;;;9.09;42.86
52441;BME280;39611;46.062;8.950;2023-04-04T01:03:25;96226.31;;;9.04;42.95
52441;BME280;39611;46.062;8.950;2023-04-04T01:05:54;96214.22;;;8.98;42.93
52441;BME280;39611;46.062;8.950;2023-04-04T01:08:23;96220.56;;;8.81;42.63
52441;BME280;39611;46.062;8.950;2023-04-04T01:10:50;96218.72;;;8.82;41.77
52441;BME280;39611;46.062;8.950;2023-04-04T01:13:17;96210.56;;;8.68;41.98
52441;BME280;39611;46.062;8.950;2023-04-04T01:15:44;96216.91;;;8.77;41.88
52441;BME280;39611;46.062;8.950;2023-04-04T01:18:12;96207.91;;;8.78;41.61
52441;BME280;39611;46.062;8.950;2023-04-04T01:20:49;96208.47;;;8.65;41.38
52441;BME280;39611;46.062;8.950;2023-04-04T01:23:18;96212.41;;;8.67;40.98
52441;BME280;39611;46.062;8.950;2023-04-04T01:25:47;96212.97;;;8.59;40.92
52441;BME280;39611;46.062;8.950;2023-04-04T01:28:14;96210.03;;;8.66;41.11
52441;BME280;39611;46.062;8.950;2023-04-04T01:30:40;96205.84;;;8.55;40.61
52441;BME280;39611;46.062;8.950;2023-04-04T01:33:25;96201.63;;;8.59;40.89
52441;BME280;39611;46.062;8.950;2023-04-04T01:41:22;96201.09;;;8.57;40.46
52441;BME280;39611;46.062;8.950;2023-04-04T01:43:51;96199.00;;;8.48;40.99
52441;BME280;39611;46.062;8.950;2023-04-04T01:46:18;96197.94;;;8.55;41.33
52441;BME280;39611;46.062;8.950;2023-04-04T01:48:45;96198.72;;;8.45;41.41
52441;BME280;39611;46.062;8.950;2023-04-04T01:51:12;96200.03;;;8.32;41.70
52441;BME280;39611;46.062;8.950;2023-04-04T01:53:39;96202.16;;;8.20;41.56
52441;BME280;39611;46.062;8.950;2023-04-04T01:56:05;96196.63;;;8.26;41.84
52441;BME280;39611;46.062;8.950;2023-04-04T01:58:32;96198.72;;;8.35;42.18
52441;BME280;39611;46.062;8.950;2023-04-04T02:00:58;96208.47;;;8.29;42.97
52441;BME280;39611;46.062;8.950;2023-04-04T02:03:24;96208.22;;;8.30;43.82
52441;BME280;39611;46.062;8.950;2023-04-04T02:05:52;96199.78;;;8.18;43.05
52441;BME280;39611;46.062;8.950;2023-04-04T02:08:19;96204.81;;;8.20;43.04
52441;BME280;39611;46.062;8.950;2023-04-04T02:10:45;96203.19;;;8.14;43.26
52441;BME280;39611;46.062;8.950;2023-04-04T02:13:12;96196.38;;;8.13;43.37
52441;BME280;39611;46.062;8.950;2023-04-04T02:15:38;96193.19;;;8.16;43.67
52441;BME280;39611;46.062;8.950;2023-04-04T02:18:05;96189.00;;;8.15;43.51
52441;BME280;39611;46.062;8.950;2023-04-04T02:20:31;96195.28;;;8.08;43.68
52441;BME280;39611;46.062;8.950;2023-04-04T02:22:57;96192.94;;;8.07;43.49
52441;BME280;39611;46.062;8.950;2023-04-04T02:25:24;96202.41;;;7.93;43.57
52441;BME280;39611;46.062;8.950;2023-04-04T02:27:52;96197.66;;;7.95;42.70
52441;BME280;39611;46.062;8.950;2023-04-04T02:30:18;96197.91;;;7.93;42.59
52441;BME280;39611;46.062;8.950;2023-04-04T02:32:45;96195.28;;;8.03;42.23
52441;BME280;39611;46.062;8.950;2023-04-04T02:35:12;96187.66;;;7.86;42.53
52441;BME280;39611;46.062;8.950;2023-04-04T02:37:38;96185.53;;;7.88;42.60
52441;BME280;39611;46.062;8.950;2023-04-04T02:40:05;96190.31;;;7.97;42.77
52441;BME280;39611;46.062;8.950;2023-04-04T02:42:32;96191.63;;;7.99;42.76
52441;BME280;39611;46.062;8.950;2023-04-04T02:44:58;96189.50;;;7.96;43.95
52441;BME280;39611;46.062;8.950;2023-04-04T02:47:25;96196.34;;;7.92;44.67
52441;BME280;39611;46.062;8.950;2023-04-04T02:49:52;96188.19;;;7.83;44.74
52441;BME280;39611;46.062;8.950;2023-04-04T02:52:19;96195.28;;;7.83;44.95
52441;BME280;39611;46.062;8.950;2023-04-04T02:54:46;96187.09;;;7.69;45.35
52441;BME280;39611;46.062;8.950;2023-04-04T02:57:13;96188.97;;;7.74;45.19
52441;BME280;39611;46.062;8.950;2023-04-04T02:59:39;96191.03;;;7.56;45.37
52441;BME280;39611;46.062;8.950;2023-04-04T03:02:05;96195.25;;;7.68;44.55
52441;BME280;39611;46.062;8.950;2023-04-04T03:04:32;96188.19;;;7.78;44.08
52441;BME280;39611;46.062;8.950;2023-04-04T03:06:58;96186.31;;;7.74;44.98
52441;BME280;39611;46.062;8.950;2023-04-04T03:09:25;96193.16;;;7.75;45.00
52441;BME280;39611;46.062;8.950;2023-04-04T03:11:51;96190.25;;;7.61;45.18
52441;BME280;39611;46.062;8.950;2023-04-04T03:14:18;96191.03;;;7.61;44.59
52441;BME280;39611;46.062;8.950;2023-04-04T03:16:44;96196.00;;;7.48;44.37
52441;BME280;39611;46.062;8.950;2023-04-04T03:19:11;96194.31;;;7.16;44.69
52441;BME280;39611;46.062;8.950;2023-04-04T03:21:37;96183.03;;;7.26;44.58
52441;BME280;39611;46.062;8.950;2023-04-04T03:24:04;96190.19;;;7.35;44.50
52441;BME280;39611;46.062;8.950;2023-04-04T03:26:30;96188.09;;;7.37;44.54
52441;BME280;39611;46.062;8.950;2023-04-04T03:28:57;96192.59;;;7.42;44.64
52441;BME280;39611;46.062;8.950;2023-04-04T03:31:23;96190.47;;;7.49;45.16
52441;BME280;39611;46.062;8.950;2023-04-04T03:33:50;96189.44;;;7.50;44.94
52441;BME280;39611;46.062;8.950;2023-04-04T03:36:16;96183.13;;;7.56;44.72
52441;BME280;39611;46.062;8.950;2023-04-04T03:38:43;96192.34;;;7.59;45.15
52441;BME280;39611;46.062;8.950;2023-04-04T03:41:09;96190.75;;;7.48;44.98
52441;BME280;39611;46.062;8.950;2023-04-04T03:43:35;96196.78;;;7.43;44.86
52441;BME280;39611;46.062;8.950;2023-04-04T03:46:03;96196.75;;;7.33;45.27
52441;BME280;39611;46.062;8.950;2023-04-04T03:48:30;96197.81;;;7.32;45.11
52441;BME280;39611;46.062;8.950;2023-04-04T03:50:57;96198.06;;;7.35;45.40
52441;BME280;39611;46.062;8.950;2023-04-04T03:53:24;96203.03;;;7.21;45.52
52441;BME280;39611;46.062;8.950;2023-04-04T03:55:53;96203.38;;;7.46;45.23
52441;BME280;39611;46.062;8.950;2023-04-04T03:58:20;96200.47;;;7.52;44.74
52441;BME280;39611;46.062;8.950;2023-04-04T04:00:47;96208.13;;;7.49;44.76
52441;BME280;39611;46.062;8.950;2023-04-04T04:03:13;96208.88;;;7.39;45.63
52441;BME280;39611;46.062;8.950;2023-04-04T04:05:42;96200.97;;;7.39;46.58
52441;BME280;39611;46.062;8.950;2023-04-04T04:08:08;96214.34;;;7.22;47.14
52441;BME280;39611;46.062;8.950;2023-04-04T04:10:35;96207.25;;;7.22;46.80
52441;BME280;39611;46.062;8.950;2023-04-04T04:13:01;96207.78;;;7.25;47.40
52441;BME280;39611;46.062;8.950;2023-04-04T04:15:28;96214.06;;;7.18;47.68
52441;BME280;39611;46.062;8.950;2023-04-04T04:17:54;96206.69;;;7.20;46.97
52441;BME280;39611;46.062;8.950;2023-04-04T04:20:22;96209.31;;;7.15;47.42
52441;BME280;39611;46.062;8.950;2023-04-04T04:22:48;96218.72;;;7.01;47.93
52441;BME280;39611;46.062;8.950;2023-04-04T04:25:16;96215.06;;;7.07;47.80
52441;BME280;39611;46.062;8.950;2023-04-04T04:27:43;96220.34;;;7.12;47.67
52441;BME280;39611;46.062;8.950;2023-04-04T04:30:10;96219.84;;;7.15;47.33
52441;BME280;39611;46.062;8.950;2023-04-04T04:32:38;96220.38;;;7.17;47.60
52441;BME280;39611;46.062;8.950;2023-04-04T04:35:05;96223.25;;;7.11;47.27
52441;BME280;39611;46.062;8.950;2023-04-04T04:37:32;96224.81;;;7.12;47.29
52441;BME280;39611;46.062;8.950;2023-04-04T04:39:58;96225.34;;;7.09;47.40
52441;BME280;39611;46.062;8.950;2023-04-04T04:42:26;96235.34;;;7.12;47.54
52441;BME280;39611;46.062;8.950;2023-04-04T04:44:54;96231.91;;;7.06;47.64
52441;BME280;39611;46.062;8.950;2023-04-04T04:47:21;96245.06;;;7.06;47.76
52441;BME280;39611;46.062;8.950;2023-04-04T04:49:47;96247.75;;;7.16;47.56
52441;BME280;39611;46.062;8.950;2023-04-04T04:52:15;96237.94;;;7.07;47.70
52441;BME280;39611;46.062;8.950;2023-04-04T04:54:41;96246.41;;;7.14;48.66
52441;BME280;39611;46.062;8.950;2023-04-04T04:57:09;96254.00;;;7.10;48.70
52441;BME280;39611;46.062;8.950;2023-04-04T04:59:35;96258.72;;;7.03;48.91
52441;BME280;39611;46.062;8.950;2023-04-04T05:02:02;96250.25;;;6.96;48.90
52441;BME280;39611;46.062;8.950;2023-04-04T05:04:28;96243.94;;;6.97;49.43
52441;BME280;39611;46.062;8.950;2023-04-04T05:06:55;96251.81;;;6.92;49.07
52441;BME280;39611;46.062;8.950;2023-04-04T05:09:21;96263.09;;;6.92;50.00
52441;BME280;39611;46.062;8.950;2023-04-04T05:11:48;96259.16;;;6.90;50.11
52441;BME280;39611;46.062;8.950;2023-04-04T05:14:15;96257.53;;;6.84;49.73
52441;BME280;39611;46.062;8.950;2023-04-04T05:16:41;96259.38;;;6.83;49.28
52441;BME280;39611;46.062;8.950;2023-04-04T05:19:08;96261.19;;;6.77;49.07
52441;BME280;39611;46.062;8.950;2023-04-04T05:21:34;96259.38;;;6.83;48.77
52441;BME280;39611;46.062;8.950;2023-04-04T05:24:00;96263.66;;;6.94;48.69
52441;BME280;39611;46.062;8.950;2023-04-04T05:26:28;96272.88;;;6.97;48.68
52441;BME280;39611;46.062;8.950;2023-04-04T05:28:54;96268.22;;;7.09;49.35
52441;BME280;39611;46.062;8.950;2023-04-04T05:31:21;96271.28;;;6.96;49.96
52441;BME280;39611;46.062;8.950;2023-04-04T05:33:47;96276.25;;;6.92;50.47
52441;BME280;39611;46.062;8.950;2023-04-04T05:36:14;96273.34;;;6.89;51.04
52441;BME280;39611;46.062;8.950;2023-04-04T05:38:41;96279.66;;;6.88;50.95
52441;BME280;39611;46.062;8.950;2023-04-04T05:41:07;96283.09;;;6.88;49.93
52441;BME280;39611;46.062;8.950;2023-04-04T05:43:34;96283.16;;;6.98;49.62
52441;BME280;39611;46.062;8.950;2023-04-04T05:46:01;96281.88;;;7.06;49.73
52441;BME280;39611;46.062;8.950;2023-04-04T05:48:27;96288.94;;;7.00;50.32
52441;BME280;39611;46.062;8.950;2023-04-04T05:50:53;96281.53;;;6.97;50.96
52441;BME280;39611;46.062;8.950;2023-04-04T05:53:20;96286.03;;;6.97;51.44
52441;BME280;39611;46.062;8.950;2023-04-04T05:55:51;96281.84;;;7.01;49.92
52441;BME280;39611;46.062;8.950;2023-04-04T05:58:18;96289.16;;;6.94;49.87
52441;BME280;39611;46.062;8.950;2023-04-04T06:00:44;96287.06;;;6.96;49.61
52441;BME280;39611;46.062;8.950;2023-04-04T06:03:11;96288.72;;;7.07;49.21
52441;BME280;39611;46.062;8.950;2023-04-04T06:05:38;96290.47;;;6.91;49.69
52441;BME280;39611;46.062;8.950;2023-04-04T06:08:04;96286.25;;;6.90;49.84
52441;BME280;39611;46.062;8.950;2023-04-04T06:10:31;96287.59;;;6.93;49.64
52441;BME280;39611;46.062;8.950;2023-04-04T06:12:58;96287.66;;;7.03;49.63
52441;BME280;39611;46.062;8.950;2023-04-04T06:15:24;96286.84;;;7.03;50.52
52441;BME280;39611;46.062;8.950;2023-04-04T06:17:50;96289.75;;;7.01;49.79
52441;BME280;39611;46.062;8.950;2023-04-04T06:20:17;96290.81;;;7.10;49.09
52441;BME280;39611;46.062;8.950;2023-04-04T06:22:46;96293.78;;;7.19;50.50
52441;BME280;39611;46.062;8.950;2023-04-04T06:25:12;96300.34;;;7.16;51.42
52441;BME280;39611;46.062;8.950;2023-04-04T06:27:39;96293.03;;;7.29;51.36
52441;BME280;39611;46.062;8.950;2023-04-04T06:30:06;96297.28;;;7.35;51.55
52441;BME280;39611;46.062;8.950;2023-04-04T06:32:36;96298.63;;;7.42;50.38
52441;BME280;39611;46.062;8.950;2023-04-04T06:35:04;96289.97;;;7.52;50.04
52441;BME280;39611;46.062;8.950;2023-04-04T06:37:30;96292.91;;;7.61;50.16
52441;BME280;39611;46.062;8.950;2023-04-04T06:39:57;96291.72;;;7.99;48.03
52441;BME280;39611;46.062;8.950;2023-04-04T06:42:23;96294.94;;;8.58;47.39
52441;BME280;39611;46.062;8.950;2023-04-04T06:44:50;96283.03;;;9.06;45.87
52441;BME280;39611;46.062;8.950;2023-04-04T06:47:16;96283.19;;;9.40;43.51
52441;BME280;39611;46.062;8.950;2023-04-04T06:49:42;96285.81;;;9.51;42.62
52441;BME280;39611;46.062;8.950;2023-04-04T06:52:09;96287.81;;;9.74;42.90
52441;BME280;39611;46.062;8.950;2023-04-04T06:54:35;96286.09;;;10.04;42.68
52441;BME280;39611;46.062;8.950;2023-04-04T06:57:02;96280.94;;;10.28;42.16
52441;BME280;39611;46.062;8.950;2023-04-04T06:59:28;96284.97;;;10.55;40.92
52441;BME280;39611;46.062;8.950;2023-04-04T07:01:56;96287.47;;;10.70;41.25
52441;BME280;39611;46.062;8.950;2023-04-04T07:04:23;96280.16;;;10.91;40.33
52441;BME280;39611;46.062;8.950;2023-04-04T07:06:49;96281.63;;;11.02;40.28
52441;BME280;39611;46.062;8.950;2023-04-04T07:09:16;96279.44;;;11.09;39.60
52441;BME280;39611;46.062;8.950;2023-04-04T07:11:54;96281.75;;;11.16;40.28
52441;BME280;39611;46.062;8.950;2023-04-04T07:14:20;96280.78;;;11.31;39.13
52441;BME280;39611;46.062;8.950;2023-04-04T07:16:50;96285.75;;;11.37;38.51
52441;BME280;39611;46.062;8.950;2023-04-04T07:19:17;96270.28;;;11.50;38.75
52441;BME280;39611;46.062;8.950;2023-04-04T07:21:43;96272.56;;;11.56;38.21
52441;BME280;39611;46.062;8.950;2023-04-04T07:24:10;96275.56;;;11.50;38.35
52441;BME280;39611;46.062;8.950;2023-04-04T07:26:36;96279.31;;;11.44;38.87
52441;BME280;39611;46.062;8.950;2023-04-04T07:29:03;96270.72;;;11.57;38.60
52441;BME280;39611;46.062;8.950;2023-04-04T07:31:29;96273.78;;;11.64;38.54
52441;BME280;39611;46.062;8.950;2023-04-04T07:33:56;96274.03;;;11.68;38.84
52441;BME280;39611;46.062;8.950;2023-04-04T07:36:22;96268.44;;;11.69;38.75
52441;BME280;39611;46.062;8.950;2023-04-04T07:38:49;96264.22;;;11.68;38.87
52441;BME280;39611;46.062;8.950;2023-04-04T07:41:15;96275.75;;;11.77;38.26
52441;BME280;39611;46.062;8.950;2023-04-04T07:43:42;96273.56;;;11.61;37.99
52441;BME280;39611;46.062;8.950;2023-04-04T07:46:08;96272.31;;;11.34;38.19
52441;BME280;39611;46.062;8.950;2023-04-04T07:48:34;96273.25;;;11.19;38.77
52441;BME280;39611;46.062;8.950;2023-04-04T07:51:02;96263.09;;;11.02;39.14
52441;BME280;39611;46.062;8.950;2023-04-04T07:53:29;96267.44;;;10.93;39.45
52441;BME280;39611;46.062;8.950;2023-04-04T07:55:56;96264.88;;;10.83;39.60
52441;BME280;39611;46.062;8.950;2023-04-04T07:58:22;96272.31;;;10.81;39.51
52441;BME280;39611;46.062;8.950;2023-04-04T08:00:49;96262.59;;;10.71;39.59
52441;BME280;39611;46.062;8.950;2023-04-04T08:03:15;96269.31;;;10.58;39.84
52441;BME280;39611;46.062;8.950;2023-04-04T08:05:43;96261.59;;;10.33;39.71
52441;BME280;39611;46.062;8.950;2023-04-04T08:08:09;96260.56;;;10.23;40.50
52441;BME280;39611;46.062;8.950;2023-04-04T08:10:36;96262.09;;;10.35;41.29
52441;BME280;39611;46.062;8.950;2023-04-04T08:13:02;96259.38;;;10.45;41.05
52441;BME280;39611;46.062;8.950;2023-04-04T08:15:30;96253.91;;;10.36;41.60
52441;BME280;39611;46.062;8.950;2023-04-04T08:17:57;96255.44;;;10.42;40.88
52441;BME280;39611;46.062;8.950;2023-04-04T08:20:23;96251.41;;;10.50;41.24
52441;BME280;39611;46.062;8.950;2023-04-04T08:22:50;96252.59;;;10.34;40.88
52441;BME280;39611;46.062;8.950;2023-04-04T08:25:16;96255.22;;;10.39;40.62
52441;BME280;39611;46.062;8.950;2023-04-04T08:27:43;96250.78;;;10.29;40.28
52441;BME280;39611;46.062;8.950;2023-04-04T08:30:13;96255.50;;;10.32;40.99
52441;BME280;39611;46.062;8.950;2023-04-04T08:32:41;96258.72;;;10.24;40.46
52441;BME280;39611;46.062;8.950;2023-04-04T08:35:09;96257.94;;;10.23;41.38
52441;BME280;39611;46.062;8.950;2023-04-04T08:37:36;96246.56;;;10.23;41.15
52441;BME280;39611;46.062;8.950;2023-04-04T08:40:03;96245.34;;;10.10;40.99
52441;BME280;39611;46.062;8.950;2023-04-04T08:42:32;96252.69;;;10.18;41.09
52441;BME280;39611;46.062;8.950;2023-04-04T08:45:02;96250.53;;;10.25;40.32
52441;BME280;39611;46.062;8.950;2023-04-04T08:47:30;96240.53;;;10.17;40.40
52441;BME280;39611;46.062;8.950;2023-04-04T08:50:03;96244.53;;;10.15;40.88
52441;BME280;39611;46.062;8.950;2023-04-04T08:52:32;96241.28;;;10.28;41.64
52441;BME280;39611;46.062;8.950;2023-04-04T08:55:00;96240.41;;;10.38;42.20
52441;BME280;39611;46.062;8.950;2023-04-04T08:57:28;96238.06;;;10.31;40.88
52441;BME280;39611;46.062;8.950;2023-04-04T08:59:54;96238.06;;;10.31;40.81
52441;BME280;39611;46.062;8.950;2023-04-04T09:04:52;96233.53;;;10.37;40.84
52441;BME280;39611;46.062;8.950;2023-04-04T09:07:32;96231.16;;;10.40;40.96
52441;BME280;39611;46.062;8.950;2023-04-04T09:10:01;96230.09;;;10.36;40.30
52441;BME280;39611;46.062;8.950;2023-04-04T09:12:31;96231.44;;;10.34;40.30
52441;BME280;39611;46.062;8.950;2023-04-04T09:15:01;96234.84;;;10.39;40.28
52441;BME280;39611;46.062;8.950;2023-04-04T09:17:28;96229.81;;;10.43;40.28
52441;BME280;39611;46.062;8.950;2023-04-04T09:19:55;96236.66;;;10.44;40.83
52441;BME280;39611;46.062;8.950;2023-04-04T09:22:21;96240.09;;;10.44;40.18
52441;BME280;39611;46.062;8.950;2023-04-04T09:24:48;96226.31;;;10.47;40.88
52441;BME280;39611;46.062;8.950;2023-04-04T09:27:17;96232.22;;;10.34;40.61
52441;BME280;39611;46.062;8.950;2023-04-04T09:29:43;96228.94;;;10.47;40.78
52441;BME280;39611;46.062;8.950;2023-04-04T09:32:13;96217.06;;;10.45;40.53
52441;BME280;39611;46.062;8.950;2023-04-04T09:34:42;96219.09;;;10.53;41.02
52441;BME280;39611;46.062;8.950;2023-04-04T09:37:10;96221.19;;;10.61;40.85
52441;BME280;39611;46.062;8.950;2023-04-04T09:39:40;96218.31;;;10.53;39.48
52441;BME280;39611;46.062;8.950;2023-04-04T09:42:07;96218.66;;;10.46;40.20
52441;BME280;39611;46.062;8.950;2023-04-04T09:44:35;96213.13;;;10.42;40.39
52441;BME280;39611;46.062;8.950;2023-04-04T09:47:21;96211.16;;;10.53;40.70
52441;BME280;39611;46.062;8.950;2023-04-04T09:50:00;96205.63;;;10.55;40.74
52441;BME280;39611;46.062;8.950;2023-04-04T09:52:27;96207.19;;;10.56;40.69
52441;BME280;39611;46.062;8.950;2023-04-04T09:54:57;96207.00;;;10.76;41.04
52441;BME280;39611;46.062;8.950;2023-04-04T09:57:29;96201.16;;;10.79;41.08
52441;BME280;39611;46.062;8.950;2023-04-04T09:59:57;96210.31;;;10.87;42.11
52441;BME280;39611;46.062;8.950;2023-04-04T10:02:25;96204.69;;;10.93;41.21
52441;BME280;39611;46.062;8.950;2023-04-04T10:04:53;96198.53;;;11.03;41.25
52441;BME280;39611;46.062;8.950;2023-04-04T10:07:31;96201.38;;;11.07;40.90
52441;BME280;39611;46.062;8.950;2023-04-04T10:10:03;96199.25;;;11.09;40.80
52441;BME280;39611;46.062;8.950;2023-04-04T10:12:30;96200.53;;;11.11;40.36
52441;BME280;39611;46.062;8.950;2023-04-04T10:14:58;96199.47;;;11.12;40.54
52441;BME280;39611;46.062;8.950;2023-04-04T10:17:39;96197.78;;;11.22;41.13
52441;BME280;39611;46.062;8.950;2023-04-04T10:20:07;96199.91;;;11.20;41.75
52441;BME280;39611;46.062;8.950;2023-04-04T10:22:38;96195.41;;;11.20;40.75
52441;BME280;39611;46.062;8.950;2023-04-04T10:25:05;96197.25;;;11.20;39.57
52441;BME280;39611;46.062;8.950;2023-04-04T10:27:33;96198.28;;;11.24;40.70
52441;BME280;39611;46.062;8.950;2023-04-04T10:29:59;96189.31;;;11.20;40.53
52441;BME280;39611;46.062;8.950;2023-04-04T10:32:49;96197.78;;;11.22;40.63
52441;BME280;39611;46.062;8.950;2023-04-04T10:35:21;96192.13;;;11.28;40.18
52441;BME280;39611;46.062;8.950;2023-04-04T10:37:56;96190.75;;;11.31;38.66
52441;BME280;39611;46.062;8.950;2023-04-04T10:40:27;96188.06;;;11.36;39.31
52441;BME280;39611;46.062;8.950;2023-04-04T10:43:03;96189.13;;;11.35;38.37
52441;BME280;39611;46.062;8.950;2023-04-04T10:45:35;96193.13;;;11.32;38.22
52441;BME280;39611;46.062;8.950;2023-04-04T10:48:05;96177.16;;;11.19;38.42
52441;BME280;39611;46.062;8.950;2023-04-04T10:50:35;96172.72;;;11.33;39.51
52441;BME280;39611;46.062;8.950;2023-04-04T10:53:05;96173.97;;;11.41;40.23
52441;BME280;39611;46.062;8.950;2023-04-04T10:55:32;96168.66;;;11.41;40.15
52441;BME280;39611;46.062;8.950;2023-04-04T10:57:59;96169.63;;;11.50;40.31
52441;BME280;39611;46.062;8.950;2023-04-04T11:00:27;96173.81;;;11.51;39.11
52441;BME280;39611;46.062;8.950;2023-04-04T11:02:55;96167.16;;;11.53;39.38
52441;BME280;39611;46.062;8.950;2023-04-04T11:05:32;96167.41;;;11.57;39.79
52441;BME280;39611;46.062;8.950;2023-04-04T11:08:04;96160.00;;;11.54;38.95
52441;BME280;39611;46.062;8.950;2023-04-04T11:10:35;96159.72;;;11.55;39.84
52441;BME280;39611;46.062;8.950;2023-04-04T11:13:57;96152.56;;;11.56;39.43
52441;BME280;39611;46.062;8.950;2023-04-04T11:15:56;96155.53;;;11.54;39.44
52441;BME280;39611;46.062;8.950;2023-04-04T11:18:46;96144.03;;;11.59;39.85
52441;BME280;39611;46.062;8.950;2023-04-04T11:21:18;96147.41;;;11.65;37.79
52441;BME280;39611;46.062;8.950;2023-04-04T11:26:33;96139.97;;;11.67;38.68
52441;BME280;39611;46.062;8.950;2023-04-04T11:29:01;96140.66;;;11.72;38.12
52441;BME280;39611;46.062;8.950;2023-04-04T11:31:38;96138.81;;;11.73;36.85
52441;BME280;39611;46.062;8.950;2023-04-04T11:34:08;96139.81;;;11.77;38.56
52441;BME280;39611;46.062;8.950;2023-04-04T11:41:54;96129.63;;;11.84;38.06
52441;BME280;39611;46.062;8.950;2023-04-04T11:44:25;96132.25;;;11.89;38.42
52441;BME280;39611;46.062;8.950;2023-04-04T11:49:29;96129.50;;;11.94;37.42
52441;BME280;39611;46.062;8.950;2023-04-04T11:51:57;96130.00;;;11.96;36.96
52441;BME280;39611;46.062;8.950;2023-04-04T11:54:25;96128.50;;;11.90;37.85
52441;BME280;39611;46.062;8.950;2023-04-04T11:56:52;96123.03;;;12.00;38.16
52441;BME280;39611;46.062;8.950;2023-04-04T11:59:20;96126.84;;;11.94;37.62
52441;BME280;39611;46.062;8.950;2023-04-04T12:01:46;96121.41;;;12.05;37.96
52441;BME280;39611;46.062;8.950;2023-04-04T12:04:17;96131.06;;;11.95;36.03
52441;BME280;39611;46.062;8.950;2023-04-04T12:06:46;96129.50;;;11.94;36.12
52441;BME280;39611;46.062;8.950;2023-04-04T12:09:14;96125.78;;;11.95;36.04
52441;BME280;39611;46.062;8.950;2023-04-04T12:11:44;96123.78;;;11.87;37.22
52441;BME280;39611;46.062;8.950;2023-04-04T12:14:20;96129.31;;;11.91;36.27
52441;BME280;39611;46.062;8.950;2023-04-04T12:16:49;96122.66;;;11.93;36.69
52441;BME280;39611;46.062;8.950;2023-04-04T12:19:17;96121.75;;;11.98;36.67
52441;BME280;39611;46.062;8.950;2023-04-04T12:21:45;96116.38;;;12.03;37.62
52441;BME280;39611;46.062;8.950;2023-04-04T12:24:13;96111.66;;;12.00;37.78
52441;BME280;39611;46.062;8.950;2023-04-04T12:26:41;96112.06;;;12.07;37.43
52441;BME280;39611;46.062;8.950;2023-04-04T12:29:10;96104.81;;;12.13;37.20
52441;BME280;39611;46.062;8.950;2023-04-04T12:31:39;96109.03;;;12.14;37.66
52441;BME280;39611;46.062;8.950;2023-04-04T12:34:06;96101.88;;;12.14;36.66
52441;BME280;39611;46.062;8.950;2023-04-04T12:36:40;96101.50;;;12.21;37.06
52441;BME280;39611;46.062;8.950;2023-04-04T12:39:08;96107.28;;;12.23;36.11
52441;BME280;39611;46.062;8.950;2023-04-04T12:42:07;96102.94;;;12.13;37.03
52441;BME280;39611;46.062;8.950;2023-04-04T12:44:36;96098.34;;;12.19;38.30
52441;BME280;39611;46.062;8.950;2023-04-04T12:47:07;96103.38;;;12.20;38.82
52441;BME280;39611;46.062;8.950;2023-04-04T12:49:39;96103.00;;;12.27;38.12
52441;BME280;39611;46.062;8.950;2023-04-04T12:52:12;96104.66;;;12.23;38.23
52441;BME280;39611;46.062;8.950;2023-04-04T12:54:42;96093.84;;;12.19;37.97
52441;BME280;39611;46.062;8.950;2023-04-04T12:57:09;96092.56;;;12.17;37.11
52441;BME280;39611;46.062;8.950;2023-04-04T12:59:37;96096.69;;;12.23;36.41
52441;BME280;39611;46.062;8.950;2023-04-04T13:02:07;96097.97;;;12.26;37.71
52441;BME280;39611;46.062;8.950;2023-04-04T13:04:34;96097.69;;;12.27;37.22
52441;BME280;39611;46.062;8.950;2023-04-04T13:07:01;96094.22;;;12.27;36.53
52441;BME280;39611;46.062;8.950;2023-04-04T13:09:28;96094.44;;;12.30;38.13
52441;BME280;39611;46.062;8.950;2023-04-04T13:11:57;96096.00;;;12.31;37.72
52441;BME280;39611;46.062;8.950;2023-04-04T13:15:02;96092.28;;;12.32;38.59
52441;BME280;39611;46.062;8.950;2023-04-04T13:20:08;96087.56;;;12.29;37.79
52441;BME280;39611;46.062;8.950;2023-04-04T13:22:35;96083.84;;;12.30;36.02
52441;BME280;39611;46.062;8.950;2023-04-04T13:25:05;96072.63;;;12.33;36.95
52441;BME280;39611;46.062;8.950;2023-04-04T13:27:33;96077.53;;;12.26;37.28
52441;BME280;39611;46.062;8.950;2023-04-04T13:30:00;96080.09;;;12.31;36.19
52441;BME280;39611;46.062;8.950;2023-04-04T13:32:26;96076.06;;;12.34;36.39